Steinsville, Pennsylvania
Current Conditions -  °F | °C
As of 8:54 AM on Sunday 25 Jan 2015 (Local Time) from KRDG Reporting Station
Overcast Overcast  
Wind Chill: 37°   Ceiling: 3400
Heat Index: 37°   Visibility: 10mi
Dew Point: 28°   Wind: 0mph
Humidity: 70%   Direction: NA
Pressure: 29.75"   Gusts: NA
Location:  40.6329°N, 75.8768°W
Report Text: KRDG 251354Z AUTO 00000KT 10SM OVC034 03/M02 A2975 RMK AO2 SLP083 T00281022
Loading
Personal Weather Stations






























Interactive Weather Map New forecast layout! Learn more

10-Day Weather Forecast

Advertisements
Track Severe Weather on mobile